Terminal Aerodrome Forecast
Issued by NWS

Home | Current Version | Previous Version | Graphics & Text | Print | Product List | Glossary On
Versions: 1 2 3 4 5 6 7 8 9 10 11 12 13 14 15 16 17 18 19
000
FTUS43 KOAX 282125 AAC
TAFCDR
TAF AMD
KCDR 282125Z 2821/2918 32012KT P6SM VCSH BKN050
      TEMPO 2821/2824 02020G30KT 5SM -TSRA SCT030 OVC050CB
     FM290300 VRB05KT P6SM SKC=

USA.gov is the U.S. government's official web portal to all federal, state and local government web resources and services.